• Join FlightAware (Why Join?)
  • Login
  • US Flag 
11:37PM EDT


 

Airport Tracker/Info


-or-


 

Live Flight TrackerFlight Track Log ✈ UAL395 ✈ 14-Aug-2013 ✈ KORD - KIAH

Flight Track Log - Related Links

Times and Time Zones

All times are in EDT time to prevent confusion due to time zone crossing. See the UAL395 flight status page for this flight to view local times or setup timezone preferences in your user account.

Time Position Orientation Groundspeed Altitude Reporting Facility
EDT Latitude Longitude Course Direction KTS MPH feet Rate Location/Type
06:13PM 41.9820 -87.9100 35° Northeast  Level FlightAware
06:24PM 41.8032 -87.9801 217° Southwest  Level FlightAware Approximate
06:25PM 41.7072 -88.0297 201° Southwest  Level FlightAware Approximate
06:26PM 41.6096 -88.0786 200° South  Level FlightAware Approximate
06:26PM 41.9630 -87.8880 220° Southwest 135 155  Level FlightAware
06:27PM 41.9490 -87.9040 220° Southwest 173 199 1,000 2,880 Climbing FlightAware
06:27PM 41.9440 -87.9070 204° Southwest 171 197 1,400 2,220 Climbing FlightAware
06:27PM 41.9370 -87.9090 192° South 179 206 1,600 1,860 Climbing FlightAware
06:27PM 41.9300 -87.9090 180° South 196 226 1,900 2,520 Climbing FlightAware
06:28PM 41.8990 -87.9090 180° South 226 260 3,300 2,940 Climbing FlightAware
06:28PM 41.8760 -87.9080 178° South 237 273 4,600 3,060 Climbing FlightAware
06:28PM 41.8570 -87.9070 178° South 264 304 5,200 3,180 Climbing FlightAware
06:29PM 41.8250 -87.9140 189° South 271 312 6,700 3,660 Climbing FlightAware
06:29PM 41.8010 -87.9300 206° Southwest 277 319 8,100 3,600 Climbing FlightAware
06:29PM 41.7720 -87.9490 206° Southwest 288 331 9,500 3,480 Climbing FlightAware
06:30PM 41.7340 -87.9720 204° Southwest 296 341 11,300 3,420 Climbing FlightAware
06:31PM 41.6860 -88.0030 206° Southwest 305 351 13,500 3,300 Climbing FlightAware
06:31PM 41.6390 -88.0330 206° Southwest 318 366 15,400 3,000 Climbing FlightAware
06:32PM 41.5970 -88.0590 205° Southwest 329 379 16,900 2,940 Climbing FlightAware
06:32PM 41.5460 -88.0900 204° Southwest 337 388 18,700 2,040 Climbing FlightAware
06:33PM 41.4910 -88.1250 205° Southwest 377 434 19,400 1,800 Climbing FlightAware
06:34PM 41.4330 -88.1610 205° Southwest 393 452 20,900 2,280 Climbing FlightAware
06:34PM 41.3800 -88.1910 203° Southwest 408 470 22,000 2,220 Climbing FlightAware
06:35PM 41.3100 -88.2230 199° South 419 482 23,500 2,340 Climbing FlightAware
06:35PM 41.2510 -88.2490 198° South 428 493 24,700 1,860 Climbing FlightAware
06:36PM 41.1810 -88.2810 199° South 443 510 25,700 1,440 Climbing FlightAware
06:36PM 41.1090 -88.3140 199° South 472 543 26,500 1,380 Climbing FlightAware
06:37PM 41.0340 -88.3470 198° South 492 566 27,400 1,560 Climbing FlightAware
06:38PM 40.9640 -88.3790 199° South 505 581 28,300 2,160 Climbing FlightAware
06:38PM 40.8830 -88.4150 199° South 505 581 29,900 2,580 Climbing FlightAware
06:39PM 40.8100 -88.4480 199° South 497 572 31,400 1,860 Climbing FlightAware
06:39PM 40.7380 -88.4800 199° South 505 581 32,000 480 Climbing FlightAware
06:40PM 40.6550 -88.5170 199° South 509 586 32,000  Level FlightAware
06:41PM 40.5570 -88.5600 198° South 504 580 32,000  Level FlightAware
06:41PM 40.4850 -88.5920 199° South 498 573 32,000  Level FlightAware
06:42PM 40.3910 -88.6340 199° South 497 572 32,000  Level FlightAware
06:42PM 40.3130 -88.6800 204° Southwest 481 554 32,000  Level FlightAware
06:43PM 40.2430 -88.7610 221° Southwest 470 541 32,000  Level FlightAware
06:44PM 40.1820 -88.8390 224° Southwest 473 544 32,000  Level FlightAware
06:44PM 40.1250 -88.9120 224° Southwest 473 544 32,000  Level FlightAware
06:45PM 40.0780 -88.9720 224° Southwest 475 547 32,000  Level FlightAware
06:46PM 40.0170 -89.0500 224° Southwest 475 547 32,000  Level FlightAware
06:46PM 39.9650 -89.1160 224° Southwest 475 547 32,000  Level FlightAware
06:47PM 39.8960 -89.2030 224° Southwest 475 547 32,000  Level FlightAware
06:47PM 39.8550 -89.2540 224° Southwest 475 547 32,000  Level FlightAware
06:48PM 39.7940 -89.3310 224° Southwest 475 547 32,000  Level FlightAware
06:49PM 39.7380 -89.4010 224° Southwest 474 545 32,000  Level FlightAware
06:49PM 39.6950 -89.4560 225° Southwest 474 545 32,000  Level FlightAware
06:50PM 39.6270 -89.5410 224° Southwest 474 545 32,000  Level FlightAware
06:50PM 39.5710 -89.6100 224° Southwest 473 544 32,000  Level FlightAware
06:51PM 39.5080 -89.6890 224° Southwest 474 545 32,000  Level FlightAware
06:52PM 39.4520 -89.7580 224° Southwest 475 547 32,000  Level FlightAware
06:52PM 39.4000 -89.8230 224° Southwest 475 547 32,000  Level FlightAware
06:53PM 39.3520 -89.8820 224° Southwest 476 548 32,000  Level FlightAware
06:53PM 39.2850 -89.9650 224° Southwest 478 550 32,000  Level FlightAware
06:54PM 39.2280 -90.0350 224° Southwest 477 549 32,000  Level FlightAware
06:54PM 39.1780 -90.0960 223° Southwest 473 544 32,000  Level FlightAware
06:55PM 39.1190 -90.1680 223° Southwest 471 542 32,000 1,020 Level FlightAware
06:56PM 39.0620 -90.2380 224° Southwest 461 531 33,300 2,040 Climbing FlightAware
06:56PM 39.0090 -90.3020 223° Southwest 456 525 34,400 1,500 Climbing FlightAware
06:57PM 38.9580 -90.3650 224° Southwest 452 520 35,000 1,080 Climbing FlightAware
06:57PM 38.8960 -90.4390 223° Southwest 450 518 35,800 1,140 Climbing FlightAware
06:58PM 38.8740 -90.4570 212° Southwest 455 524 36,000 960 Climbing FlightAware
06:58PM 38.8410 -90.4710 198° South 459 528 36,300 960 Climbing FlightAware
06:58PM 38.8130 -90.4750 186° South 467 537 36,500 720 Climbing FlightAware
06:59PM 38.7310 -90.4650 175° South 474 545 36,900 420 Climbing FlightAware
06:59PM 38.6550 -90.4550 174° South 483 556 37,000 60 Climbing FlightAware
07:00PM 38.5810 -90.4430 173° South 483 556 37,000  Level FlightAware
07:01PM 38.4710 -90.4280 174° South 484 557 37,000  Level FlightAware
07:01PM 38.3730 -90.4160 175° South 484 557 37,000  Level FlightAware
07:02PM 38.2950 -90.4050 174° South 485 558 37,000  Level FlightAware
07:03PM 38.2020 -90.3930 174° South 485 558 37,000  Level FlightAware
07:03PM 38.1390 -90.3850 174° South 486 559 37,000  Level FlightAware
07:04PM 38.0390 -90.3700 173° South 485 558 37,000  Level FlightAware
07:05PM 37.9510 -90.3600 175° South 486 559 37,000  Level FlightAware
07:05PM 37.8700 -90.3470 173° South 486 559 37,000  Level FlightAware
07:06PM 37.8020 -90.3370 173° South 486 559 37,000  Level FlightAware
07:07PM 37.7340 -90.3260 173° South 486 559 37,000  Level FlightAware
07:07PM 37.6660 -90.3150 173° South 486 559 37,000  Level FlightAware
07:08PM 37.5240 -90.3030 176° South 488 562 37,000  Level FlightAware
07:08PM 37.4370 -90.2910 174° South 489 563 37,000  Level FlightAware
07:09PM 37.3530 -90.2800 174° South 489 563 37,000  Level FlightAware
07:10PM 37.2210 -90.2630 174° South 492 566 37,000  Level FlightAware
07:11PM 37.1480 -90.2540 174° South 493 567 37,000  Level FlightAware
07:11PM 37.0660 -90.2430 174° South 494 568 37,000  Level FlightAware
07:12PM 36.9610 -90.2290 174° South 496 571 37,000  Level FlightAware
07:13PM 36.8780 -90.2180 174° South 497 572 37,000  Level FlightAware
07:13PM 36.7910 -90.2070 174° South 499 574 37,000  Level FlightAware
07:14PM 36.7350 -90.2000 174° South 499 574 37,000  Level FlightAware
07:14PM 36.6430 -90.1880 174° South 502 578 37,000  Level FlightAware
07:15PM 36.5510 -90.1760 174° South 505 581 37,000  Level FlightAware
07:16PM 36.4680 -90.1660 174° South 507 583 37,000  Level FlightAware
07:16PM 36.3930 -90.1560 174° South 509 586 37,000  Level FlightAware
07:17PM 36.3250 -90.1470 174° South 510 587 37,000  Level FlightAware
07:17PM 36.2260 -90.1340 174° South 510 587 37,000  Level FlightAware
07:18PM 36.1540 -90.1250 174° South 510 587 37,000  Level FlightAware
07:19PM 36.0820 -90.1160 174° South 510 587 37,000  Level FlightAware
07:19PM 35.9580 -90.1010 174° South 517 595 37,000  Level FlightAware
07:20PM 35.8530 -90.0880 174° South 518 596 37,000  Level FlightAware
07:20PM 35.7920 -90.0800 174° South 518 596 37,000  Level FlightAware
07:21PM 35.6930 -90.0670 174° South 516 594 37,000  Level FlightAware
07:22PM 35.6160 -90.0580 175° South 516 594 37,000  Level FlightAware
07:22PM 35.5440 -90.0480 174° South 516 594 37,000  Level FlightAware
07:23PM 35.4710 -90.0390 174° South 516 594 37,000  Level FlightAware
07:23PM 35.3980 -90.0290 174° South 516 594 37,000  Level FlightAware
07:24PM 35.3260 -90.0200 174° South 516 594 37,000  Level FlightAware
07:25PM 35.2530 -90.0110 174° South 516 594 37,000  Level FlightAware
07:25PM 35.1800 -90.0010 174° South 516 594 37,000  Level FlightAware
07:26PM 35.1060 -89.9920 174° South 516 594 37,000  Level FlightAware
07:26PM 35.0310 -89.9820 174° South 516 594 37,000  Level FlightAware
07:27PM 34.9580 -89.9730 174° South 516 594 37,000  Level FlightAware
07:28PM 34.8840 -89.9630 174° South 516 594 37,000  Level FlightAware
07:28PM 34.8110 -89.9540 174° South 516 594 37,000  Level FlightAware
07:29PM 34.7400 -89.9450 174° South 516 594 37,000  Level FlightAware
07:29PM 34.6680 -89.9360 174° South 516 594 37,000  Level FlightAware
07:30PM 34.5950 -89.9260 174° South 516 594 37,000  Level FlightAware
07:31PM 34.5220 -89.9170 174° South 516 594 37,000  Level FlightAware
07:32PM 34.1744 -90.0986 174° South 480 552 37,000  Level Memphis Center
07:33PM 34.0494 -90.1442 197° South 476 548 37,000  Level Memphis Center
07:34PM 33.9242 -90.1869 196° South 476 548 37,000  Level Memphis Center
07:35PM 33.7969 -90.2297 196° South 471 542 37,000  Level Memphis Center
07:36PM 33.6717 -90.2722 196° South 471 542 37,000  Level Memphis Center
07:37PM 33.5425 -90.3147 195° South 478 550 37,000  Level Memphis Center
07:38PM 33.4150 -90.3597 196° South 478 550 37,000  Level Memphis Center
07:39PM 33.2836 -90.4019 195° South 478 550 37,000 420 Level Memphis Center
07:40PM 33.1542 -90.4442 195° South 478 550 37,900 480 Climbing Memphis Center
07:41PM 33.0267 -90.4861 195° South 478 550 38,000  Climbing Memphis Center
07:42PM 32.9119 -90.5231 195° South 478 550 38,000  Level Memphis Center
07:43PM 32.7908 -90.5797 201° Southwest 478 550 38,000  Level Memphis Center
07:44PM 32.6736 -90.6486 206° Southwest 472 543 38,000  Level Memphis Center
07:45PM 32.5567 -90.7172 206° Southwest 472 543 38,000  Level Memphis Center
07:46PM 32.4375 -90.7856 206° Southwest 472 543 38,000  Level Memphis Center
07:47PM 32.3678 -90.8264 206° Southwest 473 544 38,000  Level Houston Center
07:48PM 32.2250 -90.9092 206° Southwest 478 550 38,000  Level Houston Center
07:49PM 32.1047 -90.9772 206° Southwest 478 550 38,000 -240 Level Houston Center
07:50PM 31.9861 -91.0458 206° Southwest 475 547 37,600 -600 Descending Houston Center
07:51PM 31.8694 -91.1125 206° Southwest 468 539 36,800 -540 Descending Houston Center
07:57PM 31.3273 -91.7082 206° Southwest 397 457 34,000 -240 Descending FlightAware ADS-B
08:03PM 31.2657 -92.4035 264° West 361 415 34,000  Level FlightAware ADS-B
08:04PM 31.2601 -92.4647 264° West 362 417 34,000  Level FlightAware ADS-B
08:04PM 31.2546 -92.5237 264° West 362 417 34,000  Level FlightAware ADS-B
08:05PM 31.2489 -92.5857 264° West 362 417 34,000  Level FlightAware ADS-B
08:05PM 31.2475 -92.6111 266° West 358 412 34,000  Level FlightAware ADS-B
08:05PM 31.2496 -92.6265 279° West 353 406 34,000  Level FlightAware ADS-B
08:05PM 31.2621 -92.6617 293° West 348 400 34,000  Level FlightAware ADS-B
08:06PM 31.2820 -92.6909 309° West 347 399 34,000  Level FlightAware ADS-B
08:06PM 31.2950 -92.7025 323° Northwest 347 399 34,000  Level FlightAware ADS-B
08:06PM 31.3062 -92.7097 331° Northwest 348 400 34,000  Level FlightAware ADS-B
08:06PM 31.3209 -92.7159 340° North 352 405 34,000  Level FlightAware ADS-B
08:06PM 31.3320 -92.7185 349° North 355 409 34,000  Level FlightAware ADS-B
08:07PM 31.3890 -92.7180 360° North 358 412 34,000  Level FlightAware
08:07PM 31.4026 -92.7188 357° North 357 411 34,000  Level FlightAware ADS-B
08:07PM 31.4413 -92.7184 North 360 414 34,000  Level FlightAware ADS-B
08:08PM 31.4930 -92.7230 356° North 357 411 34,000  Level FlightAware
08:08PM 31.5316 -92.7109 15° North 361 415 34,000  Level FlightAware ADS-B
08:08PM 31.5427 -92.7062 20° North 372 428 34,000  Level FlightAware ADS-B
08:09PM 31.5617 -92.6937 29° Northeast 380 437 34,000  Level FlightAware ADS-B
08:09PM 31.6033 -92.6298 53° Northeast 407 468 34,000  Level FlightAware ADS-B
08:10PM 31.6074 -92.6045 79° East 415 478 34,000  Level FlightAware ADS-B
08:10PM 31.6059 -92.5749 93° East 423 487 34,000  Level FlightAware ADS-B
08:10PM 31.5849 -92.5237 116° Southeast 430 495 34,000  Level FlightAware ADS-B
08:11PM 31.4873 -92.4866 162° South 407 468 34,000  Level FlightAware ADS-B
08:12PM 31.4086 -92.4905 182° South 409 471 34,000  Level FlightAware ADS-B
08:13PM 31.2825 -92.4991 183° South 409 471 34,000  Level FlightAware ADS-B
08:14PM 31.1945 -92.5362 200° South 408 470 34,000  Level FlightAware ADS-B
08:14PM 31.1834 -92.5527 232° Southwest 365 420 34,000  Level FlightAware ADS-B
08:14PM 31.1770 -92.5662 241° Southwest 358 412 34,000  Level FlightAware ADS-B
08:14PM 31.1720 -92.5821 250° West 353 406 34,000  Level FlightAware ADS-B
08:14PM 31.1689 -92.6000 259° West 348 400 34,000  Level FlightAware ADS-B
08:15PM 31.1684 -92.6171 268° West 344 396 34,000  Level FlightAware ADS-B
08:15PM 31.1716 -92.6409 279° West 340 391 34,000  Level FlightAware ADS-B
08:15PM 31.1745 -92.6515 288° West 339 390 34,000  Level FlightAware ADS-B
08:15PM 31.1778 -92.6603 294° West 338 389 34,000  Level FlightAware ADS-B
08:15PM 31.1823 -92.6700 298° West 337 388 34,000  Level FlightAware ADS-B
08:15PM 31.1985 -92.6928 310° West 337 388 34,000  Level FlightAware ADS-B
08:15PM 31.2104 -92.7036 322° Northwest 338 389 34,000  Level FlightAware ADS-B
08:16PM 31.2156 -92.7074 328° Northwest 339 390 34,000  Level FlightAware ADS-B
08:16PM 31.2521 -92.7212 342° North 348 400 34,000  Level FlightAware ADS-B
08:16PM 31.2631 -92.7218 357° North 351 404 34,000  Level FlightAware ADS-B
08:16PM 31.2680 -92.7216 North 353 406 34,000  Level FlightAware ADS-B
08:17PM 31.3203 -92.7216 360° North 355 409 34,000  Level FlightAware ADS-B
08:17PM 31.3710 -92.7200 North 355 409 34,000  Level FlightAware
08:17PM 31.3994 -92.7187 North 355 409 34,000  Level FlightAware ADS-B
08:18PM 31.4542 -92.7148 North 354 407 34,000  Level FlightAware ADS-B
08:19PM 31.5159 -92.7103 North 353 406 34,000  Level FlightAware ADS-B
08:19PM 31.5396 -92.7039 13° North 358 412 34,000  Level FlightAware ADS-B
08:20PM 31.5936 -92.6470 42° Northeast 389 448 34,000  Level FlightAware ADS-B
08:20PM 31.5986 -92.6332 67° East 395 455 34,000  Level FlightAware ADS-B
08:21PM 31.5164 -92.4754 121° Southeast 421 484 34,000  Level FlightAware ADS-B
08:22PM 31.3978 -92.4106 155° Southeast 440 506 34,000  Level FlightAware ADS-B
08:25PM 31.1021 -92.2495 155° Southeast 516 594 34,000  Level FlightAware ADS-B
08:25PM 31.0259 -92.2082 155° Southeast 517 595 34,000 -240 Level FlightAware ADS-B
08:29PM 30.5491 -91.9708 157° South 505 581 33,000 -300 Descending FlightAware ADS-B
08:29PM 30.4996 -91.9776 187° South 495 570 33,000  Level FlightAware ADS-B
08:29PM 30.4765 -91.9869 199° South 489 563 33,000  Level FlightAware ADS-B
08:29PM 30.4625 -91.9947 206° Southwest 486 559 33,000  Level FlightAware ADS-B
08:30PM 30.4528 -92.0013 210° Southwest 485 558 33,000  Level FlightAware ADS-B
08:30PM 30.3653 -92.0765 217° Southwest 483 556 33,000  Level FlightAware ADS-B
08:31PM 30.2669 -92.1639 218° Southwest 486 559 33,000  Level FlightAware ADS-B
08:32PM 30.2124 -92.2118 217° Southwest 494 568 33,000  Level FlightAware ADS-B
08:32PM 30.1504 -92.2663 217° Southwest 494 568 33,000  Level FlightAware ADS-B
08:33PM 30.0983 -92.3127 218° Southwest 490 564 33,000  Level FlightAware ADS-B
08:33PM 30.0770 -92.3359 223° Southwest 487 560 33,000  Level FlightAware ADS-B
08:33PM 30.0471 -92.3764 230° Southwest 483 556 33,000  Level FlightAware ADS-B
08:34PM 30.0079 -92.4473 237° Southwest 481 554 33,000  Level FlightAware ADS-B
08:34PM 29.9718 -92.5158 239° Southwest 483 556 33,000  Level FlightAware ADS-B
08:35PM 29.9327 -92.5907 239° Southwest 486 559 33,000  Level FlightAware ADS-B
08:36PM 29.8976 -92.6583 239° Southwest 487 560 33,000  Level FlightAware ADS-B
08:36PM 29.8623 -92.7257 239° Southwest 488 562 33,000 -180 Level FlightAware ADS-B
08:36PM 29.8472 -92.7506 235° Southwest 490 564 32,900 -1,140 Descending FlightAware ADS-B
08:37PM 29.7973 -92.8112 227° Southwest 498 573 32,200 -1,620 Descending FlightAware ADS-B
08:37PM 29.7392 -92.8824 227° Southwest 503 579 31,100 -1,560 Descending FlightAware ADS-B
08:38PM 29.6926 -92.9414 228° Southwest 496 571 30,500 -1,140 Descending FlightAware ADS-B
08:38PM 29.6457 -93.0010 228° Southwest 489 563 30,000 -480 Descending FlightAware ADS-B
08:39PM 29.5927 -93.0677 228° Southwest 487 560 30,000  Level FlightAware ADS-B
08:39PM 29.5458 -93.1270 228° Southwest 496 571 30,000  Level FlightAware ADS-B
08:40PM 29.4985 -93.1865 228° Southwest 493 567 30,000  Level FlightAware ADS-B
08:41PM 29.4517 -93.2467 228° Southwest 489 563 30,000  Level FlightAware ADS-B
08:41PM 29.4055 -93.3054 228° Southwest 487 560 30,000  Level FlightAware ADS-B
08:42PM 29.3595 -93.3630 228° Southwest 483 556 30,000  Level FlightAware ADS-B
08:42PM 29.3257 -93.4043 227° Southwest 484 557 30,000  Level FlightAware ADS-B
08:42PM 29.2777 -93.4600 225° Southwest 486 559 30,000  Level FlightAware ADS-B
08:43PM 29.2294 -93.5166 226° Southwest 489 563 30,000  Level FlightAware ADS-B
08:43PM 29.1806 -93.5740 226° Southwest 492 566 30,000  Level FlightAware ADS-B
08:44PM 29.1324 -93.6308 226° Southwest 495 570 30,000  Level FlightAware ADS-B
08:44PM 29.0839 -93.6871 225° Southwest 492 566 30,000  Level FlightAware ADS-B
08:45PM 29.0325 -93.7486 226° Southwest 488 562 30,000  Level FlightAware ADS-B
08:48PM 28.7911 -94.1250 234° Southwest 505 581 30,000  Level FlightAware ADS-B
08:49PM 28.7667 -94.2059 251° West 507 583 30,000  Level FlightAware ADS-B
08:49PM 28.7429 -94.2842 251° West 512 589 30,000  Level FlightAware ADS-B
08:50PM 28.7190 -94.3625 251° West 515 593 30,000  Level FlightAware ADS-B
08:50PM 28.6950 -94.4412 251° West 515 593 30,000  Level FlightAware ADS-B
08:51PM 28.6712 -94.5185 251° West 511 588 30,000  Level FlightAware ADS-B
08:51PM 28.6476 -94.5951 251° West 514 592 30,000  Level FlightAware ADS-B
08:52PM 28.6240 -94.6723 251° West 513 590 30,000  Level FlightAware ADS-B
08:52PM 28.6004 -94.7488 251° West 510 587 30,000  Level FlightAware ADS-B
08:53PM 28.5768 -94.8253 251° West 512 589 30,000  Level FlightAware ADS-B
08:53PM 28.5532 -94.9016 251° West 512 589 30,000  Level FlightAware ADS-B
08:54PM 28.5293 -94.9789 251° West 512 589 30,000  Level FlightAware ADS-B
08:54PM 28.5054 -95.0555 250° West 513 590 30,000  Level FlightAware ADS-B
08:55PM 28.4805 -95.1357 251° West 513 590 30,000  Level FlightAware ADS-B
08:55PM 28.4558 -95.2145 250° West 512 589 30,000 -600 Level FlightAware ADS-B
08:56PM 28.4310 -95.2940 250° West 501 577 29,400 -1,440 Descending FlightAware
08:56PM 28.4070 -95.3700 250° West 480 552 28,500 -1,260 Descending FlightAware
08:57PM 28.3880 -95.4550 256° West 471 542 28,000 -480 Descending FlightAware
08:57PM 28.4000 -95.5340 280° West 482 555 28,000  Level FlightAware
08:58PM 28.4200 -95.6220 285° West 482 555 28,000  Level FlightAware
08:59PM 28.4420 -95.7170 285° West 480 552 28,000  Level FlightAware
08:59PM 28.4600 -95.7970 284° West 480 552 28,000  Level FlightAware
09:00PM 28.4800 -95.8790 286° West 479 551 28,000  Level FlightAware
09:00PM 28.4934 -95.9370 285° West 479 551 28,000 -480 Level FlightAware ADS-B
09:01PM 28.5110 -96.0107 285° West 475 547 27,600 -1,200 Descending FlightAware ADS-B
09:01PM 28.5284 -96.0824 285° West 470 541 26,800 -1,620 Descending FlightAware ADS-B
09:02PM 28.5456 -96.1537 285° West 461 531 26,000 -840 Descending FlightAware ADS-B
09:02PM 28.5631 -96.2256 286° West 459 528 26,000  Level FlightAware ADS-B
09:03PM 28.6000 -96.3730 286° West 466 536 26,000  Level FlightAware
09:04PM 28.6180 -96.4490 285° West 466 536 26,000  Level FlightAware
09:04PM 28.6350 -96.5220 285° West 466 536 26,000  Level FlightAware
09:05PM 28.6520 -96.5950 285° West 466 536 26,000  Level FlightAware
09:06PM 28.6690 -96.6670 285° West 466 536 26,000  Level FlightAware
09:06PM 28.6860 -96.7400 285° West 466 536 26,000  Level FlightAware
09:07PM 28.7030 -96.8120 285° West 466 536 26,000 -2,100 Level FlightAware
09:11PM 29.1950 -96.4540 32° Northeast 380 437 16,400 -2,340 Descending FlightAware
09:11PM 29.2467 -96.4119 35° Northeast 375 432 15,200 -2,040 Descending FlightAware ADS-B
09:12PM 29.2899 -96.3766 35° Northeast 370 426 14,200 -1,980 Descending FlightAware ADS-B
09:12PM 29.3318 -96.3425 35° Northeast 364 419 13,200 -1,980 Descending FlightAware ADS-B
09:13PM 29.3730 -96.3089 35° Northeast 357 411 12,200 -1,800 Descending FlightAware ADS-B
09:13PM 29.4131 -96.2760 36° Northeast 342 394 11,400 -1,740 Descending FlightAware ADS-B
09:14PM 29.4517 -96.2445 35° Northeast 334 384 10,500 -1,560 Descending FlightAware ADS-B
09:14PM 29.4809 -96.2205 36° Northeast 335 386 10,000 -780 Descending FlightAware ADS-B
09:15PM 29.5001 -96.2047 36° Northeast 328 377 10,000  Level FlightAware ADS-B
09:15PM 29.5191 -96.1892 35° Northeast 327 376 10,000  Level FlightAware ADS-B
09:15PM 29.5314 -96.1786 37° Northeast 328 377 10,000  Level FlightAware ADS-B
09:15PM 29.5350 -96.1750 41° Northeast 328 377 10,000  Level FlightAware ADS-B
09:15PM 29.5393 -96.1703 44° Northeast 328 377 10,000  Level FlightAware ADS-B
09:15PM 29.5434 -96.1652 47° Northeast 328 377 10,000  Level FlightAware ADS-B
09:15PM 29.5481 -96.1588 50° Northeast 329 379 10,000  Level FlightAware ADS-B
09:15PM 29.5509 -96.1547 52° Northeast 330 380 10,000  Level FlightAware ADS-B
09:15PM 29.5546 -96.1488 54° Northeast 330 380 10,000  Level FlightAware ADS-B
09:16PM 29.5579 -96.1427 58° Northeast 332 382 10,000  Level FlightAware ADS-B
09:16PM 29.5702 -96.1185 60° Northeast 331 381 10,000 -240 Level FlightAware ADS-B
09:16PM 29.5826 -96.0946 59° Northeast 327 376 9,900 -240 Descending FlightAware ADS-B
09:16PM 29.5941 -96.0718 60° Northeast 310 357 9,900 180 Level FlightAware ADS-B
09:17PM 29.6044 -96.0513 60° Northeast 293 337 10,000 -420 Climbing FlightAware ADS-B
09:17PM 29.6144 -96.0311 60° Northeast 284 327 9,700 -1,560 Descending FlightAware ADS-B
09:17PM 29.6244 -96.0112 60° Northeast 288 331 9,200 -1,380 Descending FlightAware ADS-B
09:17PM 29.6346 -95.9906 60° Northeast 296 341 9,000 -420 Descending FlightAware ADS-B
09:18PM 29.6457 -95.9685 60° Northeast 300 345 9,000  Level FlightAware ADS-B
09:18PM 29.6563 -95.9476 60° Northeast 301 346 9,000  Level FlightAware ADS-B
09:18PM 29.6596 -95.9417 57° Northeast 300 345 9,000  Level FlightAware ADS-B
09:18PM 29.6632 -95.9367 50° Northeast 299 344 9,000  Level FlightAware ADS-B
09:18PM 29.6669 -95.9327 43° Northeast 297 342 9,000  Level FlightAware ADS-B
09:18PM 29.6703 -95.9296 38° Northeast 295 339 9,000  Level FlightAware ADS-B
09:18PM 29.6747 -95.9264 32° Northeast 294 338 9,000  Level FlightAware ADS-B
09:18PM 29.6789 -95.9238 28° Northeast 293 337 9,000 -660 Level FlightAware ADS-B
09:18PM 29.6969 -95.9130 28° Northeast 290 334 8,800 -1,200 Descending FlightAware ADS-B
09:19PM 29.7147 -95.9020 28° Northeast 290 334 8,400 -1,560 Descending FlightAware ADS-B
09:19PM 29.7296 -95.8928 28° Northeast 290 334 8,100 -1,500 Descending FlightAware ADS-B
09:19PM 29.7489 -95.8808 28° Northeast 291 335 7,700 -1,440 Descending FlightAware ADS-B
09:19PM 29.7586 -95.8744 30° Northeast 292 336 7,500 -1,440 Descending FlightAware ADS-B
09:19PM 29.7641 -95.8701 34° Northeast 293 337 7,400 -1,500 Descending FlightAware ADS-B
09:20PM 29.7723 -95.8629 37° Northeast 294 338 7,200 -1,080 Descending FlightAware ADS-B
09:20PM 29.7888 -95.8484 37° Northeast 292 336 7,000 -420 Descending FlightAware ADS-B
09:20PM 29.8050 -95.8343 37° Northeast 293 337 7,000  Level FlightAware ADS-B
09:20PM 29.8199 -95.8217 36° Northeast 291 335 7,000  Level FlightAware ADS-B
09:21PM 29.8364 -95.8081 36° Northeast 286 329 7,000  Level FlightAware ADS-B
09:21PM 29.8526 -95.7952 35° Northeast 277 319 7,000 -240 Level FlightAware ADS-B
09:21PM 29.8662 -95.7844 35° Northeast 270 311 6,900 -900 Descending FlightAware ADS-B
09:21PM 29.8822 -95.7720 34° Northeast 268 308 6,600 -1,560 Descending FlightAware ADS-B
09:22PM 29.8980 -95.7594 35° Northeast 272 313 6,100 -1,800 Descending FlightAware ADS-B
09:22PM 29.9145 -95.7464 34° Northeast 273 314 5,700 -1,560 Descending FlightAware ADS-B
09:22PM 29.9307 -95.7335 35° Northeast 275 316 5,300 -1,380 Descending FlightAware ADS-B
09:22PM 29.9469 -95.7205 35° Northeast 276 318 5,000 -540 Descending FlightAware ADS-B
09:23PM 29.9662 -95.7043 38° Northeast 277 319 5,000  Level FlightAware ADS-B
09:23PM 29.9696 -95.7008 42° Northeast 277 319 5,000  Level FlightAware ADS-B
09:23PM 29.9728 -95.6966 49° Northeast 277 319 5,000  Level FlightAware ADS-B
09:23PM 29.9754 -95.6920 57° Northeast 278 320 5,000  Level FlightAware ADS-B
09:23PM 29.9775 -95.6870 64° Northeast 277 319 5,000  Level FlightAware ADS-B
09:23PM 29.9834 -95.6701 69° East 266 306 5,000  Level FlightAware ADS-B
09:23PM 29.9846 -95.6657 73° East 265 305 5,000  Level FlightAware ADS-B
09:23PM 29.9865 -95.6551 78° East 258 297 5,000  Level FlightAware ADS-B
09:23PM 29.9881 -95.6444 80° East 252 290 5,000 -600 Level FlightAware ADS-B
09:24PM 29.9901 -95.6286 82° East 246 283 4,800 -960 Descending FlightAware ADS-B
09:24PM 29.9918 -95.6096 84° East 239 275 4,600 -840 Descending FlightAware ADS-B
09:24PM 29.9935 -95.5903 87° East 225 259 4,400 -1,260 Descending FlightAware ADS-B
09:24PM 29.9932 -95.5627 91° East 222 255 3,800 -1,560 Descending FlightAware ADS-B
09:25PM 29.9930 -95.5496 91° East 219 252 3,500 -1,680 Descending FlightAware ADS-B
09:25PM 29.9931 -95.5298 90° East 215 247 3,000 -1,500 Descending FlightAware ADS-B
09:25PM 29.9931 -95.5132 90° East 205 236 2,700 -1,200 Descending FlightAware ADS-B
09:25PM 29.9932 -95.4964 90° East 196 226 2,400 -1,080 Descending FlightAware ADS-B
09:26PM 29.9931 -95.4891 91° East 188 216 2,300 -1,080 Descending FlightAware ADS-B
09:26PM 29.9932 -95.4737 90° East 177 204 2,000 -1,020 Descending FlightAware ADS-B
09:26PM 29.9932 -95.4561 90° East 164 189 1,700 -780 Descending FlightAware ADS-B
09:27PM 29.9932 -95.4397 90° East 148 170 1,500 -720 Descending FlightAware ADS-B
09:27PM 29.9932 -95.4301 90° East 126 145 1,300 -900 Descending FlightAware ADS-B
09:27PM 29.9932 -95.4261 90° East 126 145 1,200 -600 Descending FlightAware ADS-B
09:27PM 29.9932 -95.4224 90° East 126 145 1,200 -600 Level FlightAware ADS-B
09:27PM 29.9933 -95.4120 89° East 128 147 1,000 -660 Descending FlightAware ADS-B
09:27PM 29.9934 -95.4038 89° East 126 145 900 -660 Descending FlightAware ADS-B
09:28PM 29.9933 -95.3992 91° East 125 144 800 -840 Descending FlightAware ADS-B
09:28PM 29.9933 -95.3891 90° East 123 142 600 -600 Descending FlightAware ADS-B
09:28PM 29.9934 -95.3848 88° East 123 142 600 -480 Level FlightAware ADS-B
09:28PM 29.9934 -95.3809 90° East 123 142 500 -840 Descending FlightAware ADS-B
09:28PM 29.9934 -95.3703 90° East 126 145 300 -720 Descending FlightAware ADS-B
09:28PM 29.9934 -95.3633 90° East 130 150 200 -600 Descending FlightAware ADS-B